createdAt,value
2023-03-22T00:01:45.018Z,100.00
2023-03-22T00:04:12.219Z,100.00
2023-03-22T00:06:39.464Z,100.00
2023-03-22T00:09:06.713Z,100.00
2023-03-22T00:11:35.302Z,100.00
2023-03-22T00:14:02.478Z,100.00
2023-03-22T00:16:29.759Z,100.00
2023-03-22T00:18:57.004Z,100.00
2023-03-22T00:21:24.210Z,100.00
2023-03-22T00:23:51.463Z,100.00
2023-03-22T00:26:18.658Z,100.00
2023-03-22T00:28:47.134Z,100.00
2023-03-22T00:31:14.990Z,100.00
2023-03-22T00:33:43.271Z,100.00
2023-03-22T00:36:12.077Z,100.00
2023-03-22T00:38:44.002Z,100.00
2023-03-22T00:41:14.102Z,100.00
2023-03-22T00:43:42.196Z,100.00
2023-03-22T00:46:11.552Z,100.00
2023-03-22T00:48:39.298Z,100.00
2023-03-22T00:51:07.352Z,100.00
2023-03-22T00:53:35.197Z,100.00
2023-03-22T00:56:02.897Z,100.00
2023-03-22T00:58:37.286Z,100.00
2023-03-22T01:01:05.011Z,100.00
2023-03-22T01:03:34.407Z,100.00
2023-03-22T01:06:02.214Z,100.00
2023-03-22T01:08:29.710Z,100.00
2023-03-22T01:10:56.966Z,100.00
2023-03-22T01:13:24.151Z,100.00
2023-03-22T01:15:51.767Z,100.00
2023-03-22T01:18:19.086Z,100.00
2023-03-22T01:20:47.662Z,100.00
2023-03-22T01:23:15.008Z,100.00
2023-03-22T01:25:42.364Z,100.00
2023-03-22T01:28:09.613Z,100.00
2023-03-22T01:30:39.355Z,100.00
2023-03-22T01:33:07.383Z,100.00
2023-03-22T01:35:34.826Z,100.00
2023-03-22T01:38:03.957Z,100.00
2023-03-22T01:40:33.611Z,100.00
2023-03-22T01:43:02.142Z,100.00
2023-03-22T01:45:36.907Z,100.00
2023-03-22T01:48:09.808Z,100.00
2023-03-22T01:50:41.224Z,100.00
2023-03-22T01:53:13.402Z,100.00
2023-03-22T01:55:41.402Z,100.00
2023-03-22T01:58:12.759Z,100.00
2023-03-22T02:00:50.516Z,100.00
2023-03-22T02:03:43.324Z,100.00
2023-03-22T02:06:12.249Z,100.00
2023-03-22T02:08:41.064Z,100.00
2023-03-22T02:11:16.620Z,100.00
2023-03-22T02:14:23.769Z,100.00
2023-03-22T02:17:16.616Z,100.00
2023-03-22T02:20:22.572Z,100.00
2023-03-22T02:23:27.659Z,100.00
2023-03-22T02:26:18.922Z,100.00
2023-03-22T02:28:53.476Z,100.00
2023-03-22T02:31:39.491Z,100.00
2023-03-22T02:34:32.165Z,100.00
2023-03-22T02:37:13.637Z,100.00
2023-03-22T02:39:49.617Z,100.00
2023-03-22T02:42:27.297Z,100.00
2023-03-22T02:45:01.726Z,100.00
2023-03-22T02:47:39.345Z,100.00
2023-03-22T02:50:14.035Z,100.00
2023-03-22T02:52:46.179Z,100.00
2023-03-22T02:55:20.133Z,100.00
2023-03-22T02:57:50.158Z,100.00
2023-03-22T03:00:18.957Z,100.00
2023-03-22T03:02:51.230Z,100.00
2023-03-22T03:05:20.262Z,100.00
2023-03-22T03:07:51.160Z,100.00
2023-03-22T03:10:21.922Z,100.00
2023-03-22T03:12:49.185Z,100.00
2023-03-22T03:15:18.632Z,100.00
2023-03-22T03:18:02.848Z,100.00
2023-03-22T03:20:40.833Z,100.00
2023-03-22T03:23:16.482Z,100.00
2023-03-22T03:25:54.199Z,100.00
2023-03-22T03:28:27.120Z,100.00
2023-03-22T03:31:00.648Z,100.00
2023-03-22T03:33:30.261Z,100.00
2023-03-22T03:36:02.700Z,100.00
2023-03-22T03:38:33.723Z,100.00
2023-03-22T03:41:04.955Z,100.00
2023-03-22T03:43:34.268Z,100.00
2023-03-22T03:46:01.951Z,100.00
2023-03-22T03:48:33.132Z,100.00
2023-03-22T03:51:01.713Z,100.00
2023-03-22T03:53:29.778Z,100.00
2023-03-22T03:55:57.048Z,100.00
2023-03-22T03:58:26.608Z,100.00
2023-03-22T04:00:53.777Z,100.00
2023-03-22T04:03:43.349Z,100.00
2023-03-22T04:06:13.308Z,100.00
2023-03-22T04:08:45.266Z,100.00
2023-03-22T04:11:14.315Z,100.00
2023-03-22T04:13:44.118Z,100.00
2023-03-22T04:16:16.025Z,100.00
2023-03-22T04:18:43.320Z,100.00
2023-03-22T04:21:10.513Z,100.00
2023-03-22T04:23:47.862Z,100.00
2023-03-22T04:26:16.282Z,100.00
2023-03-22T04:28:55.935Z,100.00
2023-03-22T04:31:23.389Z,100.00
2023-03-22T04:34:00.189Z,100.00
2023-03-22T04:36:38.085Z,100.00
2023-03-22T04:39:18.385Z,100.00
2023-03-22T04:41:55.105Z,100.00
2023-03-22T04:44:23.641Z,100.00
2023-03-22T04:46:51.627Z,100.00
2023-03-22T04:49:18.916Z,100.00
2023-03-22T04:51:47.454Z,100.00
2023-03-22T04:54:30.857Z,100.00
2023-03-22T04:56:58.702Z,100.00
2023-03-22T04:59:29.543Z,100.00
2023-03-22T05:01:58.751Z,100.00
2023-03-22T05:04:28.010Z,100.00
2023-03-22T05:07:04.529Z,100.00
2023-03-22T05:09:42.268Z,100.00
2023-03-22T05:12:09.976Z,100.00
2023-03-22T05:14:57.168Z,100.00
2023-03-22T05:17:29.745Z,100.00
2023-03-22T05:19:58.416Z,100.00
2023-03-22T05:22:25.781Z,100.00
2023-03-22T05:24:54.704Z,100.00
2023-03-22T05:27:24.974Z,100.00
2023-03-22T05:29:52.201Z,100.00
2023-03-22T05:32:26.150Z,100.00
2023-03-22T05:34:56.112Z,100.00
2023-03-22T05:37:30.196Z,100.00
2023-03-22T05:39:58.271Z,100.00
2023-03-22T05:42:36.236Z,100.00
2023-03-22T05:45:10.653Z,100.00
2023-03-22T05:47:39.663Z,100.00
2023-03-22T05:50:16.656Z,100.00
2023-03-22T05:52:44.045Z,100.00
2023-03-22T05:55:21.248Z,100.00
2023-03-22T05:57:53.142Z,100.00
2023-03-22T06:00:21.195Z,100.00
2023-03-22T06:03:18.497Z,100.00
2023-03-22T06:05:51.703Z,100.00
2023-03-22T06:08:24.181Z,100.00
2023-03-22T06:10:53.916Z,100.00
2023-03-22T06:13:21.792Z,100.00
2023-03-22T06:15:49.613Z,100.00
2023-03-22T06:18:24.600Z,100.00
2023-03-22T06:21:00.684Z,100.00
2023-03-22T06:23:28.267Z,100.00
2023-03-22T06:25:55.478Z,100.00
2023-03-22T06:28:23.369Z,100.00
2023-03-22T06:30:53.768Z,100.00
2023-03-22T06:33:45.390Z,100.00
2023-03-22T06:36:29.365Z,100.00
2023-03-22T06:39:15.032Z,100.00
2023-03-22T06:41:44.840Z,100.00
2023-03-22T06:44:12.412Z,100.00
2023-03-22T06:46:45.344Z,100.00
2023-03-22T06:49:23.570Z,100.00
2023-03-22T06:51:53.476Z,100.00
2023-03-22T06:54:21.262Z,100.00
2023-03-22T06:56:48.572Z,100.00
2023-03-22T06:59:16.656Z,100.00
2023-03-22T07:01:44.655Z,100.00
2023-03-22T07:04:12.613Z,100.00
2023-03-22T07:06:41.273Z,100.00
2023-03-22T07:09:08.458Z,100.00
2023-03-22T07:11:37.188Z,100.00
2023-03-22T07:14:04.499Z,100.00
2023-03-22T07:16:49.744Z,100.00
2023-03-22T07:19:18.813Z,100.00
2023-03-22T07:21:48.520Z,100.00
2023-03-22T07:24:16.766Z,100.00
2023-03-22T07:26:45.401Z,100.00
2023-03-22T07:29:17.650Z,100.00
2023-03-22T07:31:44.869Z,100.00
2023-03-22T07:34:16.524Z,100.00
2023-03-22T07:36:56.963Z,100.00
2023-03-22T07:39:24.713Z,99.28
2023-03-22T07:41:52.163Z,99.20
2023-03-22T07:44:25.703Z,99.83
2023-03-22T07:47:18.728Z,100.00
2023-03-22T07:49:56.322Z,100.00
2023-03-22T07:52:31.844Z,100.00
2023-03-22T07:54:59.128Z,100.00
2023-03-22T07:57:26.337Z,99.82
2023-03-22T07:59:56.997Z,99.74
2023-03-22T08:02:27.608Z,99.08
2023-03-22T08:04:56.803Z,98.31
2023-03-22T08:07:35.421Z,98.64
2023-03-22T08:10:03.728Z,98.34
2023-03-22T08:12:31.226Z,98.07
2023-03-22T08:15:07.957Z,98.78
2023-03-22T08:17:35.777Z,96.92
2023-03-22T08:20:05.108Z,96.59
2023-03-22T08:22:45.521Z,96.25
2023-03-22T08:25:35.856Z,93.22
2023-03-22T08:28:09.573Z,92.84
2023-03-22T08:30:37.672Z,94.29
2023-03-22T08:33:05.387Z,94.43
2023-03-22T08:35:33.543Z,92.45
2023-03-22T08:38:02.076Z,91.12
2023-03-22T08:40:38.108Z,91.68
2023-03-22T08:43:05.487Z,89.84
2023-03-22T08:45:32.689Z,88.83
2023-03-22T08:48:08.071Z,88.31
2023-03-22T08:50:52.975Z,87.17
2023-03-22T08:53:31.939Z,86.54
2023-03-22T08:56:19.049Z,85.50
2023-03-22T08:58:57.673Z,86.96
2023-03-22T09:01:36.725Z,84.42
2023-03-22T09:04:06.022Z,82.19
2023-03-22T09:06:33.318Z,82.25
2023-03-22T09:09:02.112Z,82.44
2023-03-22T09:11:29.437Z,82.99
2023-03-22T09:13:56.691Z,80.83
2023-03-22T09:16:24.044Z,81.80
2023-03-22T09:18:51.432Z,78.90
2023-03-22T09:21:21.595Z,78.65
2023-03-22T09:23:52.969Z,76.44
2023-03-22T09:26:27.286Z,76.50
2023-03-22T09:28:55.513Z,74.14
2023-03-22T09:31:22.808Z,73.77
2023-03-22T09:34:01.522Z,72.78
2023-03-22T09:36:28.762Z,74.20
2023-03-22T09:38:55.937Z,71.82
2023-03-22T09:41:32.782Z,70.46
2023-03-22T09:44:05.377Z,72.43
2023-03-22T09:46:36.967Z,72.14
2023-03-22T09:49:10.309Z,70.00
2023-03-22T09:51:40.321Z,68.31
2023-03-22T09:54:16.095Z,68.70
2023-03-22T09:56:49.384Z,68.36
2023-03-22T09:59:25.078Z,68.09
2023-03-22T10:01:58.331Z,66.75
2023-03-22T10:04:40.926Z,67.66
2023-03-22T10:07:18.529Z,65.77
2023-03-22T10:09:52.025Z,64.91
2023-03-22T10:12:26.350Z,67.50
2023-03-22T10:15:02.426Z,66.50
2023-03-22T10:17:30.223Z,65.65
2023-03-22T10:20:00.804Z,66.79
2023-03-22T10:22:33.242Z,66.65
2023-03-22T10:25:01.262Z,65.42
2023-03-22T10:27:32.913Z,64.77
2023-03-22T10:30:01.198Z,65.95
2023-03-22T10:32:36.283Z,64.17
2023-03-22T10:35:06.659Z,65.61
2023-03-22T10:37:35.785Z,64.89
2023-03-22T10:40:06.075Z,64.44
2023-03-22T10:42:38.383Z,65.30
2023-03-22T10:45:08.372Z,64.07
2023-03-22T10:47:39.214Z,63.27
2023-03-22T10:50:13.245Z,63.85
2023-03-22T10:52:45.597Z,63.15
2023-03-22T10:55:15.184Z,64.19
2023-03-22T10:57:51.598Z,63.88
2023-03-22T11:00:21.028Z,63.20
2023-03-22T11:02:53.116Z,62.48
2023-03-22T11:05:23.292Z,62.70
2023-03-22T11:07:50.483Z,60.99
2023-03-22T11:10:27.382Z,61.90
2023-03-22T11:13:11.926Z,61.11
2023-03-22T11:15:41.741Z,60.49
2023-03-22T11:18:14.093Z,61.88
2023-03-22T11:20:43.775Z,60.08
2023-03-22T11:23:13.167Z,60.98
2023-03-22T11:25:46.339Z,61.10
2023-03-22T11:28:19.193Z,62.54
2023-03-22T11:31:02.552Z,62.38
2023-03-22T11:33:30.982Z,62.92
2023-03-22T11:36:00.383Z,60.81
2023-03-22T11:38:31.220Z,61.80
2023-03-22T11:41:01.571Z,61.54
2023-03-22T11:43:35.740Z,60.10
2023-03-22T11:46:04.233Z,62.26
2023-03-22T11:48:34.036Z,62.12
2023-03-22T11:51:06.693Z,60.08
2023-03-22T11:53:37.082Z,62.11
2023-03-22T11:56:06.773Z,60.10
2023-03-22T11:58:53.285Z,61.59
2023-03-22T12:01:27.697Z,59.73
2023-03-22T12:03:57.115Z,60.03
2023-03-22T12:06:26.899Z,58.33
2023-03-22T12:08:56.538Z,57.88
2023-03-22T12:11:29.089Z,56.97
2023-03-22T12:14:00.660Z,57.01
2023-03-22T12:16:29.185Z,58.48
2023-03-22T12:19:05.128Z,58.28
2023-03-22T12:21:32.352Z,58.31
2023-03-22T12:24:04.114Z,56.71
2023-03-22T12:26:32.996Z,57.99
2023-03-22T12:29:04.848Z,56.92
2023-03-22T12:31:37.091Z,57.48
2023-03-22T12:34:08.558Z,56.93
2023-03-22T12:36:40.820Z,58.76
2023-03-22T12:39:13.049Z,56.98
2023-03-22T12:41:43.992Z,56.92
2023-03-22T12:44:17.603Z,57.40
2023-03-22T12:46:50.692Z,57.29
2023-03-22T12:49:25.980Z,56.72
2023-03-22T12:52:00.272Z,56.53
2023-03-22T12:54:28.279Z,56.03
2023-03-22T12:56:55.886Z,55.31
2023-03-22T12:59:28.735Z,53.06
2023-03-22T13:02:00.309Z,54.59
2023-03-22T13:04:45.433Z,56.57
2023-03-22T13:07:15.690Z,54.02
2023-03-22T13:09:44.021Z,55.53
2023-03-22T13:12:32.787Z,56.05
2023-03-22T13:15:20.602Z,54.97
2023-03-22T13:17:49.301Z,55.70
2023-03-22T13:20:23.584Z,55.77
2023-03-22T13:23:26.683Z,54.51
2023-03-22T13:26:04.976Z,54.25
2023-03-22T13:28:32.899Z,56.18
2023-03-22T13:31:01.527Z,55.36
2023-03-22T13:33:30.948Z,54.50
2023-03-22T13:36:00.503Z,56.33
2023-03-22T13:38:30.161Z,53.19
2023-03-22T13:41:01.199Z,54.90
2023-03-22T13:43:32.028Z,54.70
2023-03-22T13:46:14.244Z,55.47
2023-03-22T13:48:51.506Z,55.19
2023-03-22T13:51:22.325Z,55.24
2023-03-22T13:53:57.755Z,55.83
2023-03-22T13:56:32.321Z,55.60
2023-03-22T13:59:00.483Z,54.39
2023-03-22T14:01:32.303Z,55.27
2023-03-22T14:04:02.415Z,55.27
2023-03-22T14:06:32.796Z,51.50
2023-03-22T14:09:03.275Z,50.95
2023-03-22T14:11:39.493Z,51.67
2023-03-22T14:14:12.487Z,50.96
2023-03-22T14:16:45.291Z,52.08
2023-03-22T14:19:18.202Z,51.62
